sensor_id;sensor_type;location;lat;lon;timestamp;temperature;humidity
33105;DHT22;19476;51.448;6.674;2023-06-26T00:01:17;29.70;38.90
33105;DHT22;19476;51.448;6.674;2023-06-26T00:03:43;29.60;38.80
33105;DHT22;19476;51.448;6.674;2023-06-26T00:06:08;29.60;39.00
33105;DHT22;19476;51.448;6.674;2023-06-26T00:08:34;29.60;39.00
33105;DHT22;19476;51.448;6.674;2023-06-26T00:11:00;29.50;39.20
33105;DHT22;19476;51.448;6.674;2023-06-26T00:13:26;29.50;39.20
33105;DHT22;19476;51.448;6.674;2023-06-26T00:15:51;29.50;39.40
33105;DHT22;19476;51.448;6.674;2023-06-26T00:18:17;29.50;39.40
33105;DHT22;19476;51.448;6.674;2023-06-26T00:20:43;29.40;39.40
33105;DHT22;19476;51.448;6.674;2023-06-26T00:23:09;29.40;39.50
33105;DHT22;19476;51.448;6.674;2023-06-26T00:25:34;29.40;39.60
33105;DHT22;19476;51.448;6.674;2023-06-26T00:28:00;29.40;40.20
33105;DHT22;19476;51.448;6.674;2023-06-26T00:30:26;29.40;39.80
33105;DHT22;19476;51.448;6.674;2023-06-26T00:32:52;29.30;39.70
33105;DHT22;19476;51.448;6.674;2023-06-26T00:35:18;29.30;39.80
33105;DHT22;19476;51.448;6.674;2023-06-26T00:37:44;29.20;39.80
33105;DHT22;19476;51.448;6.674;2023-06-26T00:40:10;29.20;39.90
33105;DHT22;19476;51.448;6.674;2023-06-26T00:42:36;29.20;40.00
33105;DHT22;19476;51.448;6.674;2023-06-26T00:45:01;29.20;40.00
33105;DHT22;19476;51.448;6.674;2023-06-26T00:47:27;29.20;40.00
33105;DHT22;19476;51.448;6.674;2023-06-26T00:49:54;29.20;40.70
33105;DHT22;19476;51.448;6.674;2023-06-26T00:52:21;29.20;40.40
33105;DHT22;19476;51.448;6.674;2023-06-26T00:54:49;29.10;40.30
33105;DHT22;19476;51.448;6.674;2023-06-26T00:57:17;29.10;40.30
33105;DHT22;19476;51.448;6.674;2023-06-26T00:59:43;29.10;40.50
33105;DHT22;19476;51.448;6.674;2023-06-26T01:02:09;29.00;40.50
33105;DHT22;19476;51.448;6.674;2023-06-26T01:04:35;28.90;40.50
33105;DHT22;19476;51.448;6.674;2023-06-26T01:07:02;28.90;40.60
33105;DHT22;19476;51.448;6.674;2023-06-26T01:09:29;28.80;40.70
33105;DHT22;19476;51.448;6.674;2023-06-26T01:11:55;28.90;40.90
33105;DHT22;19476;51.448;6.674;2023-06-26T01:14:21;28.80;40.80
33105;DHT22;19476;51.448;6.674;2023-06-26T01:16:47;28.80;40.90
33105;DHT22;19476;51.448;6.674;2023-06-26T01:19:24;28.80;41.00
33105;DHT22;19476;51.448;6.674;2023-06-26T01:27:21;28.60;41.50
33105;DHT22;19476;51.448;6.674;2023-06-26T01:29:50;28.60;41.30
33105;DHT22;19476;51.448;6.674;2023-06-26T01:32:17;28.60;41.50
33105;DHT22;19476;51.448;6.674;2023-06-26T01:34:44;28.50;41.90
33105;DHT22;19476;51.448;6.674;2023-06-26T01:37:10;28.50;41.60
33105;DHT22;19476;51.448;6.674;2023-06-26T01:39:36;28.40;41.50
33105;DHT22;19476;51.448;6.674;2023-06-26T01:42:02;28.40;41.50
33105;DHT22;19476;51.448;6.674;2023-06-26T01:44:36;28.40;41.70
33105;DHT22;19476;51.448;6.674;2023-06-26T01:47:05;28.40;42.20
33105;DHT22;19476;51.448;6.674;2023-06-26T01:52:14;28.30;42.40
33105;DHT22;19476;51.448;6.674;2023-06-26T01:55:02;28.30;42.40
33105;DHT22;19476;51.448;6.674;2023-06-26T01:57:30;28.30;42.50
33105;DHT22;19476;51.448;6.674;2023-06-26T01:59:57;28.20;42.20
33105;DHT22;19476;51.448;6.674;2023-06-26T02:02:24;28.20;42.20
33105;DHT22;19476;51.448;6.674;2023-06-26T02:04:51;28.10;42.20
33105;DHT22;19476;51.448;6.674;2023-06-26T02:07:17;28.10;42.30
33105;DHT22;19476;51.448;6.674;2023-06-26T02:09:42;28.10;42.40
33105;DHT22;19476;51.448;6.674;2023-06-26T02:12:09;28.10;42.40
33105;DHT22;19476;51.448;6.674;2023-06-26T02:14:35;28.00;42.40
33105;DHT22;19476;51.448;6.674;2023-06-26T02:17:01;28.00;42.50
33105;DHT22;19476;51.448;6.674;2023-06-26T02:19:26;28.00;42.50
33105;DHT22;19476;51.448;6.674;2023-06-26T02:21:53;27.90;42.40
33105;DHT22;19476;51.448;6.674;2023-06-26T02:24:19;28.00;42.60
33105;DHT22;19476;51.448;6.674;2023-06-26T02:26:45;27.90;42.50
33105;DHT22;19476;51.448;6.674;2023-06-26T02:29:12;27.90;42.40
33105;DHT22;19476;51.448;6.674;2023-06-26T02:31:37;27.90;42.50
33105;DHT22;19476;51.448;6.674;2023-06-26T02:34:04;27.90;42.40
33105;DHT22;19476;51.448;6.674;2023-06-26T02:36:30;27.90;42.40
33105;DHT22;19476;51.448;6.674;2023-06-26T02:38:55;27.90;42.40
33105;DHT22;19476;51.448;6.674;2023-06-26T02:41:21;27.90;42.30
33105;DHT22;19476;51.448;6.674;2023-06-26T02:43:47;27.90;42.30
33105;DHT22;19476;51.448;6.674;2023-06-26T02:46:13;27.90;42.30
33105;DHT22;19476;51.448;6.674;2023-06-26T02:48:39;27.90;42.30
33105;DHT22;19476;51.448;6.674;2023-06-26T02:51:04;27.90;42.30
33105;DHT22;19476;51.448;6.674;2023-06-26T02:53:31;27.90;42.40
33105;DHT22;19476;51.448;6.674;2023-06-26T02:55:56;27.80;42.40
33105;DHT22;19476;51.448;6.674;2023-06-26T02:58:22;27.80;42.40
33105;DHT22;19476;51.448;6.674;2023-06-26T03:00:48;27.80;42.50
33105;DHT22;19476;51.448;6.674;2023-06-26T03:03:14;27.70;42.50
33105;DHT22;19476;51.448;6.674;2023-06-26T03:05:39;27.70;42.70
33105;DHT22;19476;51.448;6.674;2023-06-26T03:08:05;27.70;42.70
33105;DHT22;19476;51.448;6.674;2023-06-26T03:10:31;27.60;42.80
33105;DHT22;19476;51.448;6.674;2023-06-26T03:12:57;27.70;42.90
33105;DHT22;19476;51.448;6.674;2023-06-26T03:15:23;27.60;43.10
33105;DHT22;19476;51.448;6.674;2023-06-26T03:17:48;27.60;43.10
33105;DHT22;19476;51.448;6.674;2023-06-26T03:20:14;27.50;43.10
33105;DHT22;19476;51.448;6.674;2023-06-26T03:22:41;27.50;43.20
33105;DHT22;19476;51.448;6.674;2023-06-26T03:25:07;27.40;43.30
33105;DHT22;19476;51.448;6.674;2023-06-26T03:27:33;27.40;43.40
33105;DHT22;19476;51.448;6.674;2023-06-26T03:29:59;27.40;43.50
33105;DHT22;19476;51.448;6.674;2023-06-26T03:32:24;27.30;43.50
33105;DHT22;19476;51.448;6.674;2023-06-26T03:34:50;27.30;43.80
33105;DHT22;19476;51.448;6.674;2023-06-26T03:37:18;27.20;43.70
33105;DHT22;19476;51.448;6.674;2023-06-26T03:39:44;27.20;43.80
33105;DHT22;19476;51.448;6.674;2023-06-26T03:42:10;27.20;43.90
33105;DHT22;19476;51.448;6.674;2023-06-26T03:44:35;27.20;44.00
33105;DHT22;19476;51.448;6.674;2023-06-26T03:47:01;27.20;44.10
33105;DHT22;19476;51.448;6.674;2023-06-26T03:49:27;27.20;44.10
33105;DHT22;19476;51.448;6.674;2023-06-26T03:51:53;27.20;44.00
33105;DHT22;19476;51.448;6.674;2023-06-26T03:54:19;27.20;44.00
33105;DHT22;19476;51.448;6.674;2023-06-26T03:56:45;27.10;43.90
33105;DHT22;19476;51.448;6.674;2023-06-26T03:59:11;27.10;44.00
33105;DHT22;19476;51.448;6.674;2023-06-26T04:01:38;27.00;43.90
33105;DHT22;19476;51.448;6.674;2023-06-26T04:04:04;27.00;44.00
33105;DHT22;19476;51.448;6.674;2023-06-26T04:06:30;27.00;43.80
33105;DHT22;19476;51.448;6.674;2023-06-26T04:08:59;27.00;43.90
33105;DHT22;19476;51.448;6.674;2023-06-26T04:11:25;27.00;43.70
33105;DHT22;19476;51.448;6.674;2023-06-26T04:13:52;26.90;43.60
33105;DHT22;19476;51.448;6.674;2023-06-26T04:16:18;26.90;43.50
33105;DHT22;19476;51.448;6.674;2023-06-26T04:18:44;26.90;43.60
33105;DHT22;19476;51.448;6.674;2023-06-26T04:21:12;26.80;43.40
33105;DHT22;19476;51.448;6.674;2023-06-26T04:23:41;26.90;43.60
33105;DHT22;19476;51.448;6.674;2023-06-26T04:26:08;26.90;43.60
33105;DHT22;19476;51.448;6.674;2023-06-26T04:28:34;26.90;43.50
33105;DHT22;19476;51.448;6.674;2023-06-26T04:31:03;26.10;42.90
33105;DHT22;19476;51.448;6.674;2023-06-26T04:33:29;26.80;43.50
33105;DHT22;19476;51.448;6.674;2023-06-26T04:35:55;26.90;43.40
33105;DHT22;19476;51.448;6.674;2023-06-26T04:38:22;26.90;43.50
33105;DHT22;19476;51.448;6.674;2023-06-26T04:40:48;26.90;43.50
33105;DHT22;19476;51.448;6.674;2023-06-26T04:43:14;26.90;43.50
33105;DHT22;19476;51.448;6.674;2023-06-26T04:45:40;26.90;43.60
33105;DHT22;19476;51.448;6.674;2023-06-26T04:48:06;26.90;43.60
33105;DHT22;19476;51.448;6.674;2023-06-26T04:50:32;26.90;43.80
33105;DHT22;19476;51.448;6.674;2023-06-26T04:52:59;26.90;43.90
33105;DHT22;19476;51.448;6.674;2023-06-26T04:55:25;26.90;44.10
33105;DHT22;19476;51.448;6.674;2023-06-26T04:57:51;27.00;44.30
33105;DHT22;19476;51.448;6.674;2023-06-26T05:00:17;26.90;44.30
33105;DHT22;19476;51.448;6.674;2023-06-26T05:02:43;26.90;44.50
33105;DHT22;19476;51.448;6.674;2023-06-26T05:05:09;26.90;44.60
33105;DHT22;19476;51.448;6.674;2023-06-26T05:07:37;26.80;44.60
33105;DHT22;19476;51.448;6.674;2023-06-26T05:10:04;26.80;44.70
33105;DHT22;19476;51.448;6.674;2023-06-26T05:12:30;26.80;44.80
33105;DHT22;19476;51.448;6.674;2023-06-26T05:14:56;26.80;44.80
33105;DHT22;19476;51.448;6.674;2023-06-26T05:17:22;26.80;44.90
33105;DHT22;19476;51.448;6.674;2023-06-26T05:19:47;26.70;44.90
33105;DHT22;19476;51.448;6.674;2023-06-26T05:22:14;26.70;45.00
33105;DHT22;19476;51.448;6.674;2023-06-26T05:24:40;26.70;45.00
33105;DHT22;19476;51.448;6.674;2023-06-26T05:27:08;26.70;45.10
33105;DHT22;19476;51.448;6.674;2023-06-26T05:29:34;26.70;45.20
33105;DHT22;19476;51.448;6.674;2023-06-26T05:32:00;26.70;45.20
33105;DHT22;19476;51.448;6.674;2023-06-26T05:34:27;26.70;45.20
33105;DHT22;19476;51.448;6.674;2023-06-26T05:36:58;26.70;45.10
33105;DHT22;19476;51.448;6.674;2023-06-26T05:39:25;26.80;45.40
33105;DHT22;19476;51.448;6.674;2023-06-26T05:41:51;26.70;45.10
33105;DHT22;19476;51.448;6.674;2023-06-26T05:44:17;26.70;45.10
33105;DHT22;19476;51.448;6.674;2023-06-26T05:46:45;26.70;45.20
33105;DHT22;19476;51.448;6.674;2023-06-26T05:49:12;26.70;45.40
33105;DHT22;19476;51.448;6.674;2023-06-26T05:51:38;26.70;45.20
33105;DHT22;19476;51.448;6.674;2023-06-26T05:54:04;26.60;45.20
33105;DHT22;19476;51.448;6.674;2023-06-26T05:56:31;26.60;45.50
33105;DHT22;19476;51.448;6.674;2023-06-26T05:58:58;26.60;45.60
33105;DHT22;19476;51.448;6.674;2023-06-26T06:01:24;26.60;45.60
33105;DHT22;19476;51.448;6.674;2023-06-26T06:03:50;26.60;45.70
33105;DHT22;19476;51.448;6.674;2023-06-26T06:06:16;26.50;45.70
33105;DHT22;19476;51.448;6.674;2023-06-26T06:08:45;26.50;45.90
33105;DHT22;19476;51.448;6.674;2023-06-26T06:11:11;26.40;46.10
33105;DHT22;19476;51.448;6.674;2023-06-26T06:13:37;26.40;46.10
33105;DHT22;19476;51.448;6.674;2023-06-26T06:16:03;26.30;46.10
33105;DHT22;19476;51.448;6.674;2023-06-26T06:18:30;26.30;46.50
33105;DHT22;19476;51.448;6.674;2023-06-26T06:20:56;26.30;46.60
33105;DHT22;19476;51.448;6.674;2023-06-26T06:23:22;26.20;46.70
33105;DHT22;19476;51.448;6.674;2023-06-26T06:25:48;26.20;47.60
33105;DHT22;19476;51.448;6.674;2023-06-26T06:28:16;26.20;47.20
33105;DHT22;19476;51.448;6.674;2023-06-26T06:30:42;26.20;47.30
33105;DHT22;19476;51.448;6.674;2023-06-26T06:33:08;26.20;47.40
33105;DHT22;19476;51.448;6.674;2023-06-26T06:35:34;26.20;47.50
33105;DHT22;19476;51.448;6.674;2023-06-26T06:38:00;26.20;47.70
33105;DHT22;19476;51.448;6.674;2023-06-26T06:40:26;26.60;47.90
33105;DHT22;19476;51.448;6.674;2023-06-26T06:42:52;26.30;47.70
33105;DHT22;19476;51.448;6.674;2023-06-26T06:45:21;26.30;47.60
33105;DHT22;19476;51.448;6.674;2023-06-26T06:47:47;26.30;47.90
33105;DHT22;19476;51.448;6.674;2023-06-26T06:50:13;26.30;47.50
33105;DHT22;19476;51.448;6.674;2023-06-26T06:52:43;26.30;47.70
33105;DHT22;19476;51.448;6.674;2023-06-26T06:55:18;26.30;47.80
33105;DHT22;19476;51.448;6.674;2023-06-26T06:57:44;26.30;47.90
33105;DHT22;19476;51.448;6.674;2023-06-26T07:00:11;26.20;47.50
33105;DHT22;19476;51.448;6.674;2023-06-26T07:02:56;26.40;47.80
33105;DHT22;19476;51.448;6.674;2023-06-26T07:05:22;26.40;47.80
33105;DHT22;19476;51.448;6.674;2023-06-26T07:07:48;26.30;47.60
33105;DHT22;19476;51.448;6.674;2023-06-26T07:10:14;26.30;47.70
33105;DHT22;19476;51.448;6.674;2023-06-26T07:13:01;26.30;47.70
33105;DHT22;19476;51.448;6.674;2023-06-26T07:15:26;26.30;48.00
33105;DHT22;19476;51.448;6.674;2023-06-26T07:17:52;26.40;48.00
33105;DHT22;19476;51.448;6.674;2023-06-26T07:20:18;26.40;48.00
33105;DHT22;19476;51.448;6.674;2023-06-26T07:22:44;26.40;48.10
33105;DHT22;19476;51.448;6.674;2023-06-26T07:25:11;26.50;48.20
33105;DHT22;19476;51.448;6.674;2023-06-26T07:27:41;26.50;48.30
33105;DHT22;19476;51.448;6.674;2023-06-26T07:30:08;26.50;48.50
33105;DHT22;19476;51.448;6.674;2023-06-26T07:32:35;26.60;48.20
33105;DHT22;19476;51.448;6.674;2023-06-26T07:35:01;26.70;48.10
33105;DHT22;19476;51.448;6.674;2023-06-26T07:37:27;26.70;48.10
33105;DHT22;19476;51.448;6.674;2023-06-26T07:39:53;26.70;48.00
33105;DHT22;19476;51.448;6.674;2023-06-26T07:42:19;26.80;48.00
33105;DHT22;19476;51.448;6.674;2023-06-26T07:44:45;26.80;47.80
33105;DHT22;19476;51.448;6.674;2023-06-26T07:47:12;26.90;47.80
33105;DHT22;19476;51.448;6.674;2023-06-26T07:49:39;26.90;47.90
33105;DHT22;19476;51.448;6.674;2023-06-26T07:52:06;26.90;47.80
33105;DHT22;19476;51.448;6.674;2023-06-26T07:54:32;26.90;47.70
33105;DHT22;19476;51.448;6.674;2023-06-26T07:57:04;27.00;47.60
33105;DHT22;19476;51.448;6.674;2023-06-26T07:59:34;27.00;47.80
33105;DHT22;19476;51.448;6.674;2023-06-26T08:02:00;27.00;47.40
33105;DHT22;19476;51.448;6.674;2023-06-26T08:04:28;27.10;47.30
33105;DHT22;19476;51.448;6.674;2023-06-26T08:06:57;27.10;47.40
33105;DHT22;19476;51.448;6.674;2023-06-26T08:09:25;27.10;47.10
33105;DHT22;19476;51.448;6.674;2023-06-26T08:11:52;27.20;46.90
33105;DHT22;19476;51.448;6.674;2023-06-26T08:14:18;27.20;46.60
33105;DHT22;19476;51.448;6.674;2023-06-26T08:16:46;27.20;46.50
33105;DHT22;19476;51.448;6.674;2023-06-26T08:19:12;27.20;46.50
33105;DHT22;19476;51.448;6.674;2023-06-26T08:21:42;27.30;47.00
33105;DHT22;19476;51.448;6.674;2023-06-26T08:24:09;27.20;46.30
33105;DHT22;19476;51.448;6.674;2023-06-26T08:26:35;27.20;46.30
33105;DHT22;19476;51.448;6.674;2023-06-26T08:29:02;27.30;46.10
33105;DHT22;19476;51.448;6.674;2023-06-26T08:31:37;27.30;46.00
33105;DHT22;19476;51.448;6.674;2023-06-26T08:34:03;27.30;46.00
33105;DHT22;19476;51.448;6.674;2023-06-26T08:36:29;27.30;45.70
33105;DHT22;19476;51.448;6.674;2023-06-26T08:38:55;27.30;45.60
33105;DHT22;19476;51.448;6.674;2023-06-26T08:41:22;27.40;45.50
33105;DHT22;19476;51.448;6.674;2023-06-26T08:43:48;27.40;45.50
33105;DHT22;19476;51.448;6.674;2023-06-26T08:46:16;27.40;46.10
33105;DHT22;19476;51.448;6.674;2023-06-26T08:48:57;27.40;45.60
33105;DHT22;19476;51.448;6.674;2023-06-26T08:51:28;27.40;45.60
33105;DHT22;19476;51.448;6.674;2023-06-26T08:53:59;27.40;45.30
33105;DHT22;19476;51.448;6.674;2023-06-26T08:56:28;27.40;45.40
33105;DHT22;19476;51.448;6.674;2023-06-26T08:58:57;27.50;45.20
33105;DHT22;19476;51.448;6.674;2023-06-26T09:01:24;27.50;45.30
33105;DHT22;19476;51.448;6.674;2023-06-26T09:03:51;27.50;45.10
33105;DHT22;19476;51.448;6.674;2023-06-26T09:06:17;27.50;45.10
33105;DHT22;19476;51.448;6.674;2023-06-26T09:08:44;27.50;45.00
33105;DHT22;19476;51.448;6.674;2023-06-26T09:11:12;27.50;45.20
33105;DHT22;19476;51.448;6.674;2023-06-26T09:13:40;27.60;45.20
33105;DHT22;19476;51.448;6.674;2023-06-26T09:16:09;27.60;45.20
33105;DHT22;19476;51.448;6.674;2023-06-26T09:18:35;27.70;44.60
33105;DHT22;19476;51.448;6.674;2023-06-26T09:21:09;27.70;44.60
33105;DHT22;19476;51.448;6.674;2023-06-26T09:23:35;27.70;44.60
33105;DHT22;19476;51.448;6.674;2023-06-26T09:26:07;27.80;44.60
33105;DHT22;19476;51.448;6.674;2023-06-26T09:28:36;27.80;44.30
33105;DHT22;19476;51.448;6.674;2023-06-26T09:31:07;27.90;44.20
33105;DHT22;19476;51.448;6.674;2023-06-26T09:33:34;28.00;43.70
33105;DHT22;19476;51.448;6.674;2023-06-26T09:36:18;28.00;43.50
33105;DHT22;19476;51.448;6.674;2023-06-26T09:38:46;28.00;42.80
33105;DHT22;19476;51.448;6.674;2023-06-26T09:41:11;28.00;42.40
33105;DHT22;19476;51.448;6.674;2023-06-26T09:43:49;28.10;42.60
33105;DHT22;19476;51.448;6.674;2023-06-26T09:46:28;28.10;42.30
33105;DHT22;19476;51.448;6.674;2023-06-26T09:51:34;28.20;42.40
33105;DHT22;19476;51.448;6.674;2023-06-26T09:54:00;28.30;42.50
33105;DHT22;19476;51.448;6.674;2023-06-26T09:56:28;28.40;42.10
33105;DHT22;19476;51.448;6.674;2023-06-26T10:12:11;28.40;41.30
33105;DHT22;19476;51.448;6.674;2023-06-26T10:14:42;28.40;41.00
33105;DHT22;19476;51.448;6.674;2023-06-26T10:17:13;28.50;41.10
33105;DHT22;19476;51.448;6.674;2023-06-26T10:19:44;28.50;40.90
33105;DHT22;19476;51.448;6.674;2023-06-26T10:22:14;28.60;40.60
33105;DHT22;19476;51.448;6.674;2023-06-26T10:24:41;28.50;40.80
33105;DHT22;19476;51.448;6.674;2023-06-26T10:27:16;28.60;40.90
33105;DHT22;19476;51.448;6.674;2023-06-26T10:29:49;28.60;40.40
33105;DHT22;19476;51.448;6.674;2023-06-26T10:32:17;28.60;40.30
33105;DHT22;19476;51.448;6.674;2023-06-26T10:34:43;28.60;40.60
33105;DHT22;19476;51.448;6.674;2023-06-26T10:37:09;28.60;40.90
33105;DHT22;19476;51.448;6.674;2023-06-26T10:39:49;28.60;41.00
33105;DHT22;19476;51.448;6.674;2023-06-26T10:42:18;28.70;40.70
33105;DHT22;19476;51.448;6.674;2023-06-26T10:44:46;28.80;39.70
33105;DHT22;19476;51.448;6.674;2023-06-26T10:49:54;28.90;37.20
33105;DHT22;19476;51.448;6.674;2023-06-26T10:52:20;28.90;37.50
33105;DHT22;19476;51.448;6.674;2023-06-26T10:54:45;28.80;37.50
33105;DHT22;19476;51.448;6.674;2023-06-26T10:57:11;28.70;37.80
33105;DHT22;19476;51.448;6.674;2023-06-26T10:59:48;28.70;37.90
33105;DHT22;19476;51.448;6.674;2023-06-26T11:02:15;28.70;37.70
33105;DHT22;19476;51.448;6.674;2023-06-26T11:04:46;28.70;37.20
33105;DHT22;19476;51.448;6.674;2023-06-26T11:07:16;28.80;37.10
33105;DHT22;19476;51.448;6.674;2023-06-26T11:12:43;28.90;36.80
33105;DHT22;19476;51.448;6.674;2023-06-26T11:15:11;29.00;37.00
33105;DHT22;19476;51.448;6.674;2023-06-26T11:17:39;29.00;37.00
33105;DHT22;19476;51.448;6.674;2023-06-26T11:20:09;29.00;37.20
33105;DHT22;19476;51.448;6.674;2023-06-26T11:22:37;29.00;36.50
33105;DHT22;19476;51.448;6.674;2023-06-26T11:25:03;29.00;36.20
33105;DHT22;19476;51.448;6.674;2023-06-26T11:27:49;29.00;36.20
33105;DHT22;19476;51.448;6.674;2023-06-26T11:30:25;29.00;35.20
33105;DHT22;19476;51.448;6.674;2023-06-26T11:32:51;29.00;34.40
33105;DHT22;19476;51.448;6.674;2023-06-26T11:35:24;29.00;34.20
33105;DHT22;19476;51.448;6.674;2023-06-26T11:37:57;29.10;33.40
33105;DHT22;19476;51.448;6.674;2023-06-26T11:40:26;29.20;33.50
33105;DHT22;19476;51.448;6.674;2023-06-26T11:42:58;29.30;34.00
33105;DHT22;19476;51.448;6.674;2023-06-26T11:45:24;29.40;34.30
33105;DHT22;19476;51.448;6.674;2023-06-26T11:47:50;29.50;34.20
33105;DHT22;19476;51.448;6.674;2023-06-26T11:50:19;29.60;34.20
33105;DHT22;19476;51.448;6.674;2023-06-26T11:52:48;29.70;33.60
33105;DHT22;19476;51.448;6.674;2023-06-26T11:55:18;29.60;33.60
33105;DHT22;19476;51.448;6.674;2023-06-26T11:57:54;29.70;33.10
33105;DHT22;19476;51.448;6.674;2023-06-26T12:00:21;29.70;31.50
33105;DHT22;19476;51.448;6.674;2023-06-26T12:02:47;29.60;30.40
33105;DHT22;19476;51.448;6.674;2023-06-26T12:05:14;29.60;30.70
33105;DHT22;19476;51.448;6.674;2023-06-26T12:07:46;29.50;30.30
33105;DHT22;19476;51.448;6.674;2023-06-26T12:10:13;29.50;30.20
33105;DHT22;19476;51.448;6.674;2023-06-26T12:12:40;29.60;30.30
33105;DHT22;19476;51.448;6.674;2023-06-26T12:15:08;29.60;30.50
33105;DHT22;19476;51.448;6.674;2023-06-26T12:17:38;29.80;30.70
33105;DHT22;19476;51.448;6.674;2023-06-26T12:20:18;29.80;30.70
33105;DHT22;19476;51.448;6.674;2023-06-26T12:22:46;29.80;30.40
33105;DHT22;19476;51.448;6.674;2023-06-26T12:25:13;29.90;30.70
33105;DHT22;19476;51.448;6.674;2023-06-26T12:27:38;29.90;30.80
33105;DHT22;19476;51.448;6.674;2023-06-26T12:30:05;30.00;30.60
33105;DHT22;19476;51.448;6.674;2023-06-26T12:32:31;30.00;31.00
33105;DHT22;19476;51.448;6.674;2023-06-26T12:34:58;30.00;30.70
33105;DHT22;19476;51.448;6.674;2023-06-26T12:37:24;30.10;30.20
33105;DHT22;19476;51.448;6.674;2023-06-26T12:39:57;30.10;30.10
33105;DHT22;19476;51.448;6.674;2023-06-26T12:42:24;30.10;29.90
33105;DHT22;19476;51.448;6.674;2023-06-26T12:44:51;30.20;29.90
33105;DHT22;19476;51.448;6.674;2023-06-26T12:47:19;30.20;29.60
33105;DHT22;19476;51.448;6.674;2023-06-26T12:49:51;30.20;29.40
33105;DHT22;19476;51.448;6.674;2023-06-26T12:52:17;30.20;29.20
33105;DHT22;19476;51.448;6.674;2023-06-26T12:54:46;30.20;29.00
33105;DHT22;19476;51.448;6.674;2023-06-26T12:57:13;30.20;29.20
33105;DHT22;19476;51.448;6.674;2023-06-26T12:59:42;30.30;29.30
33105;DHT22;19476;51.448;6.674;2023-06-26T13:02:09;30.50;28.90
33105;DHT22;19476;51.448;6.674;2023-06-26T13:04:36;30.40;28.90
33105;DHT22;19476;51.448;6.674;2023-06-26T13:07:08;30.50;29.00
33105;DHT22;19476;51.448;6.674;2023-06-26T13:09:35;30.50;28.90
33105;DHT22;19476;51.448;6.674;2023-06-26T13:12:02;30.60;29.80
33105;DHT22;19476;51.448;6.674;2023-06-26T13:14:29;30.70;29.30
33105;DHT22;19476;51.448;6.674;2023-06-26T13:16:55;30.80;29.10
33105;DHT22;19476;51.448;6.674;2023-06-26T13:19:21;30.90;28.60
33105;DHT22;19476;51.448;6.674;2023-06-26T13:21:47;31.00;28.60
33105;DHT22;19476;51.448;6.674;2023-06-26T13:24:13;31.10;28.80
33105;DHT22;19476;51.448;6.674;2023-06-26T13:26:39;31.10;28.70
33105;DHT22;19476;51.448;6.674;2023-06-26T13:29:05;31.20;28.40
33105;DHT22;19476;51.448;6.674;2023-06-26T13:31:31;31.20;28.40
33105;DHT22;19476;51.448;6.674;2023-06-26T13:34:01;31.20;28.60
33105;DHT22;19476;51.448;6.674;2023-06-26T13:36:29;31.30;28.20
33105;DHT22;19476;51.448;6.674;2023-06-26T13:38:54;31.30;28.10
33105;DHT22;19476;51.448;6.674;2023-06-26T13:41:24;31.40;28.00
33105;DHT22;19476;51.448;6.674;2023-06-26T13:43:50;31.40;27.90
33105;DHT22;19476;51.448;6.674;2023-06-26T13:46:16;31.40;28.00
33105;DHT22;19476;51.448;6.674;2023-06-26T13:48:46;31.50;28.00
33105;DHT22;19476;51.448;6.674;2023-06-26T13:51:12;31.50;28.00
33105;DHT22;19476;51.448;6.674;2023-06-26T13:53:38;31.60;27.90
33105;DHT22;19476;51.448;6.674;2023-06-26T13:56:03;31.60;27.50
33105;DHT22;19476;51.448;6.674;2023-06-26T13:58:30;31.70;27.50
33105;DHT22;19476;51.448;6.674;2023-06-26T14:00:58;31.70;27.40
33105;DHT22;19476;51.448;6.674;2023-06-26T14:03:27;31.60;27.60
33105;DHT22;19476;51.448;6.674;2023-06-26T14:05:53;31.50;28.00
33105;DHT22;19476;51.448;6.674;2023-06-26T14:08:19;31.50;28.30
33105;DHT22;19476;51.448;6.674;2023-06-26T14:10:45;31.50;28.20
33105;DHT22;19476;51.448;6.674;2023-06-26T14:13:11;31.50;28.00
33105;DHT22;19476;51.448;6.674;2023-06-26T14:15:41;31.50;27.70
33105;DHT22;19476;51.448;6.674;2023-06-26T14:18:07;31.70;27.90
33105;DHT22;19476;51.448;6.674;2023-06-26T14:20:33;31.80;27.70
33105;DHT22;19476;51.448;6.674;2023-06-26T14:23:00;31.90;27.40
33105;DHT22;19476;51.448;6.674;2023-06-26T14:25:25;32.00;27.40
33105;DHT22;19476;51.448;6.674;2023-06-26T14:27:57;32.20;27.40
33105;DHT22;19476;51.448;6.674;2023-06-26T14:30:23;32.30;27.30
33105;DHT22;19476;51.448;6.674;2023-06-26T14:32:49;32.30;27.00
33105;DHT22;19476;51.448;6.674;2023-06-26T14:35:15;32.30;26.90
33105;DHT22;19476;51.448;6.674;2023-06-26T14:37:41;32.30;26.70
33105;DHT22;19476;51.448;6.674;2023-06-26T14:40:08;32.20;26.60
33105;DHT22;19476;51.448;6.674;2023-06-26T14:42:33;32.10;26.20
33105;DHT22;19476;51.448;6.674;2023-06-26T14:44:59;32.10;26.10
33105;DHT22;19476;51.448;6.674;2023-06-26T14:47:25;31.90;25.80
33105;DHT22;19476;51.448;6.674;2023-06-26T14:49:51;31.80;25.80
33105;DHT22;19476;51.448;6.674;2023-06-26T14:52:17;31.70;25.80
33105;DHT22;19476;51.448;6.674;2023-06-26T14:54:42;31.60;26.00
33105;DHT22;19476;51.448;6.674;2023-06-26T14:57:09;31.50;26.50
33105;DHT22;19476;51.448;6.674;2023-06-26T14:59:36;31.50;26.60
33105;DHT22;19476;51.448;6.674;2023-06-26T15:02:02;31.50;26.70
33105;DHT22;19476;51.448;6.674;2023-06-26T15:04:28;31.50;27.00
33105;DHT22;19476;51.448;6.674;2023-06-26T15:06:56;31.60;27.20
33105;DHT22;19476;51.448;6.674;2023-06-26T15:09:22;31.60;27.50
33105;DHT22;19476;51.448;6.674;2023-06-26T15:11:49;31.60;27.50
33105;DHT22;19476;51.448;6.674;2023-06-26T15:14:14;31.60;27.40
33105;DHT22;19476;51.448;6.674;2023-06-26T15:16:40;31.60;27.60
33105;DHT22;19476;51.448;6.674;2023-06-26T15:19:06;31.60;27.50
33105;DHT22;19476;51.448;6.674;2023-06-26T15:21:33;31.60;27.60
33105;DHT22;19476;51.448;6.674;2023-06-26T15:23:59;31.60;27.60
33105;DHT22;19476;51.448;6.674;2023-06-26T15:26:25;31.70;27.70
33105;DHT22;19476;51.448;6.674;2023-06-26T15:28:51;31.70;27.80
33105;DHT22;19476;51.448;6.674;2023-06-26T15:31:19;31.70;27.90
33105;DHT22;19476;51.448;6.674;2023-06-26T15:33:45;31.80;28.00
33105;DHT22;19476;51.448;6.674;2023-06-26T15:36:11;31.80;27.80
33105;DHT22;19476;51.448;6.674;2023-06-26T15:38:37;31.80;27.30
33105;DHT22;19476;51.448;6.674;2023-06-26T15:41:02;31.80;27.40
33105;DHT22;19476;51.448;6.674;2023-06-26T15:43:28;31.70;27.30
33105;DHT22;19476;51.448;6.674;2023-06-26T15:45:54;31.60;26.70
33105;DHT22;19476;51.448;6.674;2023-06-26T15:48:20;31.50;26.90
33105;DHT22;19476;51.448;6.674;2023-06-26T15:50:45;31.30;26.80
33105;DHT22;19476;51.448;6.674;2023-06-26T15:53:15;31.10;26.90
33105;DHT22;19476;51.448;6.674;2023-06-26T15:55:42;31.00;27.20
33105;DHT22;19476;51.448;6.674;2023-06-26T15:58:08;30.80;27.50
33105;DHT22;19476;51.448;6.674;2023-06-26T16:00:34;30.70;27.80